sensor_id;sensor_type;location;lat;lon;timestamp;P1;durP1;ratioP1;P2;durP2;ratioP2
72406;SDS011;60396;47.550;18.828;2023-06-22T00:01:49;12.20;;;3.47;;
72406;SDS011;60396;47.550;18.828;2023-06-22T00:04:17;12.95;;;2.95;;
72406;SDS011;60396;47.550;18.828;2023-06-22T00:06:45;10.70;;;2.95;;
72406;SDS011;60396;47.550;18.828;2023-06-22T00:09:12;14.95;;;3.00;;
72406;SDS011;60396;47.550;18.828;2023-06-22T00:11:40;10.67;;;2.83;;
72406;SDS011;60396;47.550;18.828;2023-06-22T00:14:08;11.10;;;2.95;;
72406;SDS011;60396;47.550;18.828;2023-06-22T00:16:35;12.10;;;2.80;;
72406;SDS011;60396;47.550;18.828;2023-06-22T00:19:03;11.43;;;2.92;;
72406;SDS011;60396;47.550;18.828;2023-06-22T00:21:31;11.82;;;2.60;;
72406;SDS011;60396;47.550;18.828;2023-06-22T00:23:58;14.23;;;2.60;;
72406;SDS011;60396;47.550;18.828;2023-06-22T00:26:26;12.37;;;2.97;;
72406;SDS011;60396;47.550;18.828;2023-06-22T00:28:54;13.10;;;3.37;;
72406;SDS011;60396;47.550;18.828;2023-06-22T00:31:22;14.05;;;2.90;;
72406;SDS011;60396;47.550;18.828;2023-06-22T00:33:54;9.15;;;2.83;;
72406;SDS011;60396;47.550;18.828;2023-06-22T00:36:21;11.07;;;2.70;;
72406;SDS011;60396;47.550;18.828;2023-06-22T00:38:52;12.52;;;3.95;;
72406;SDS011;60396;47.550;18.828;2023-06-22T00:41:19;13.70;;;3.28;;
72406;SDS011;60396;47.550;18.828;2023-06-22T00:43:47;14.63;;;3.03;;
72406;SDS011;60396;47.550;18.828;2023-06-22T00:46:16;11.35;;;2.78;;
72406;SDS011;60396;47.550;18.828;2023-06-22T00:48:43;13.03;;;2.83;;
72406;SDS011;60396;47.550;18.828;2023-06-22T00:51:11;11.85;;;3.17;;
72406;SDS011;60396;47.550;18.828;2023-06-22T00:53:39;12.98;;;3.00;;
72406;SDS011;60396;47.550;18.828;2023-06-22T00:56:08;11.57;;;3.05;;
72406;SDS011;60396;47.550;18.828;2023-06-22T00:58:36;10.48;;;3.00;;
72406;SDS011;60396;47.550;18.828;2023-06-22T01:01:04;15.27;;;3.20;;
72406;SDS011;60396;47.550;18.828;2023-06-22T01:03:32;10.55;;;2.90;;
72406;SDS011;60396;47.550;18.828;2023-06-22T01:06:06;16.83;;;3.55;;
72406;SDS011;60396;47.550;18.828;2023-06-22T01:08:42;17.10;;;3.10;;
72406;SDS011;60396;47.550;18.828;2023-06-22T01:11:59;10.82;;;2.90;;
72406;SDS011;60396;47.550;18.828;2023-06-22T01:16:42;9.82;;;2.67;;
72406;SDS011;60396;47.550;18.828;2023-06-22T01:22:16;9.13;;;2.50;;
72406;SDS011;60396;47.550;18.828;2023-06-22T01:30:24;9.55;;;2.58;;
72406;SDS011;60396;47.550;18.828;2023-06-22T01:32:56;13.13;;;2.80;;
72406;SDS011;60396;47.550;18.828;2023-06-22T01:35:25;13.98;;;2.80;;
72406;SDS011;60396;47.550;18.828;2023-06-22T01:37:53;13.10;;;3.00;;
72406;SDS011;60396;47.550;18.828;2023-06-22T01:40:20;9.20;;;2.60;;
72406;SDS011;60396;47.550;18.828;2023-06-22T01:42:51;11.88;;;3.15;;
72406;SDS011;60396;47.550;18.828;2023-06-22T01:45:19;11.40;;;3.05;;
72406;SDS011;60396;47.550;18.828;2023-06-22T01:47:47;14.30;;;3.42;;
72406;SDS011;60396;47.550;18.828;2023-06-22T01:50:15;10.70;;;3.40;;
72406;SDS011;60396;47.550;18.828;2023-06-22T01:52:42;9.37;;;3.27;;
72406;SDS011;60396;47.550;18.828;2023-06-22T01:55:10;10.90;;;3.30;;
72406;SDS011;60396;47.550;18.828;2023-06-22T01:57:39;10.65;;;3.62;;
72406;SDS011;60396;47.550;18.828;2023-06-22T02:00:07;12.63;;;3.50;;
72406;SDS011;60396;47.550;18.828;2023-06-22T02:02:45;11.15;;;3.35;;
72406;SDS011;60396;47.550;18.828;2023-06-22T02:05:19;10.67;;;3.80;;
72406;SDS011;60396;47.550;18.828;2023-06-22T02:08:09;14.15;;;4.05;;
72406;SDS011;60396;47.550;18.828;2023-06-22T02:10:48;8.38;;;3.50;;
72406;SDS011;60396;47.550;18.828;2023-06-22T02:13:16;10.80;;;3.42;;
72406;SDS011;60396;47.550;18.828;2023-06-22T02:15:45;9.55;;;3.60;;
72406;SDS011;60396;47.550;18.828;2023-06-22T02:18:13;11.47;;;3.23;;
72406;SDS011;60396;47.550;18.828;2023-06-22T02:20:41;14.80;;;4.35;;
72406;SDS011;60396;47.550;18.828;2023-06-22T02:23:09;8.98;;;2.60;;
72406;SDS011;60396;47.550;18.828;2023-06-22T02:25:37;11.73;;;2.97;;
72406;SDS011;60396;47.550;18.828;2023-06-22T02:28:04;13.18;;;3.65;;
72406;SDS011;60396;47.550;18.828;2023-06-22T02:30:32;9.23;;;3.77;;
72406;SDS011;60396;47.550;18.828;2023-06-22T02:33:00;11.52;;;3.35;;
72406;SDS011;60396;47.550;18.828;2023-06-22T02:35:28;11.50;;;3.22;;
72406;SDS011;60396;47.550;18.828;2023-06-22T02:37:59;9.20;;;3.50;;
72406;SDS011;60396;47.550;18.828;2023-06-22T02:40:28;11.55;;;3.28;;
72406;SDS011;60396;47.550;18.828;2023-06-22T02:42:57;12.83;;;3.80;;
72406;SDS011;60396;47.550;18.828;2023-06-22T02:45:29;8.63;;;2.78;;
72406;SDS011;60396;47.550;18.828;2023-06-22T02:47:57;9.68;;;3.10;;
72406;SDS011;60396;47.550;18.828;2023-06-22T02:50:25;10.38;;;3.33;;
72406;SDS011;60396;47.550;18.828;2023-06-22T02:52:53;8.02;;;2.80;;
72406;SDS011;60396;47.550;18.828;2023-06-22T02:55:21;13.27;;;3.10;;
72406;SDS011;60396;47.550;18.828;2023-06-22T02:57:50;14.73;;;3.60;;
72406;SDS011;60396;47.550;18.828;2023-06-22T03:00:20;9.18;;;2.70;;
72406;SDS011;60396;47.550;18.828;2023-06-22T03:02:49;10.18;;;2.87;;
72406;SDS011;60396;47.550;18.828;2023-06-22T03:05:17;11.15;;;3.00;;
72406;SDS011;60396;47.550;18.828;2023-06-22T03:07:46;16.93;;;3.43;;
72406;SDS011;60396;47.550;18.828;2023-06-22T03:10:15;8.95;;;2.60;;
72406;SDS011;60396;47.550;18.828;2023-06-22T03:12:43;11.68;;;3.12;;
72406;SDS011;60396;47.550;18.828;2023-06-22T03:15:11;10.50;;;2.97;;
72406;SDS011;60396;47.550;18.828;2023-06-22T03:17:39;10.43;;;3.25;;
72406;SDS011;60396;47.550;18.828;2023-06-22T03:20:08;11.47;;;3.07;;
72406;SDS011;60396;47.550;18.828;2023-06-22T03:22:38;10.05;;;3.10;;
72406;SDS011;60396;47.550;18.828;2023-06-22T03:25:08;12.77;;;2.97;;
72406;SDS011;60396;47.550;18.828;2023-06-22T03:27:42;10.38;;;2.83;;
72406;SDS011;60396;47.550;18.828;2023-06-22T03:30:11;8.25;;;3.05;;
72406;SDS011;60396;47.550;18.828;2023-06-22T03:32:39;12.27;;;3.00;;
72406;SDS011;60396;47.550;18.828;2023-06-22T03:35:07;8.77;;;2.92;;
72406;SDS011;60396;47.550;18.828;2023-06-22T03:37:35;10.52;;;2.83;;
72406;SDS011;60396;47.550;18.828;2023-06-22T03:40:03;11.43;;;2.90;;
72406;SDS011;60396;47.550;18.828;2023-06-22T03:42:35;8.40;;;2.60;;
72406;SDS011;60396;47.550;18.828;2023-06-22T03:45:03;9.73;;;2.67;;
72406;SDS011;60396;47.550;18.828;2023-06-22T03:47:31;10.45;;;2.62;;
72406;SDS011;60396;47.550;18.828;2023-06-22T03:50:00;10.77;;;2.55;;
72406;SDS011;60396;47.550;18.828;2023-06-22T03:52:27;15.65;;;3.10;;
72406;SDS011;60396;47.550;18.828;2023-06-22T03:54:55;9.80;;;2.62;;
72406;SDS011;60396;47.550;18.828;2023-06-22T03:57:23;13.60;;;2.60;;
72406;SDS011;60396;47.550;18.828;2023-06-22T03:59:51;10.57;;;3.00;;
72406;SDS011;60396;47.550;18.828;2023-06-22T04:02:18;9.57;;;2.55;;
72406;SDS011;60396;47.550;18.828;2023-06-22T04:04:46;6.65;;;2.33;;
72406;SDS011;60396;47.550;18.828;2023-06-22T04:07:14;9.23;;;3.05;;
72406;SDS011;60396;47.550;18.828;2023-06-22T04:09:42;7.83;;;2.67;;
72406;SDS011;60396;47.550;18.828;2023-06-22T04:12:10;11.60;;;3.10;;
72406;SDS011;60396;47.550;18.828;2023-06-22T04:14:37;13.25;;;3.25;;
72406;SDS011;60396;47.550;18.828;2023-06-22T04:17:05;8.55;;;2.60;;
72406;SDS011;60396;47.550;18.828;2023-06-22T04:19:33;13.48;;;3.15;;
72406;SDS011;60396;47.550;18.828;2023-06-22T04:22:00;8.77;;;2.77;;
72406;SDS011;60396;47.550;18.828;2023-06-22T04:24:28;10.85;;;3.25;;
72406;SDS011;60396;47.550;18.828;2023-06-22T04:26:56;9.65;;;2.87;;
72406;SDS011;60396;47.550;18.828;2023-06-22T04:29:23;13.32;;;4.07;;
72406;SDS011;60396;47.550;18.828;2023-06-22T04:31:56;11.20;;;2.70;;
72406;SDS011;60396;47.550;18.828;2023-06-22T04:34:25;9.57;;;2.93;;
72406;SDS011;60396;47.550;18.828;2023-06-22T04:36:56;14.13;;;2.90;;
72406;SDS011;60396;47.550;18.828;2023-06-22T04:39:23;11.25;;;3.40;;
72406;SDS011;60396;47.550;18.828;2023-06-22T04:41:51;10.10;;;2.62;;
72406;SDS011;60396;47.550;18.828;2023-06-22T04:44:19;13.35;;;2.75;;
72406;SDS011;60396;47.550;18.828;2023-06-22T04:46:53;7.67;;;2.73;;
72406;SDS011;60396;47.550;18.828;2023-06-22T04:49:30;10.18;;;3.28;;
72406;SDS011;60396;47.550;18.828;2023-06-22T04:52:03;10.63;;;2.62;;
72406;SDS011;60396;47.550;18.828;2023-06-22T04:54:32;11.93;;;3.15;;
72406;SDS011;60396;47.550;18.828;2023-06-22T04:57:03;12.52;;;3.15;;
72406;SDS011;60396;47.550;18.828;2023-06-22T04:59:37;12.03;;;2.73;;
72406;SDS011;60396;47.550;18.828;2023-06-22T05:02:09;10.77;;;2.70;;
72406;SDS011;60396;47.550;18.828;2023-06-22T05:04:37;11.10;;;2.97;;
72406;SDS011;60396;47.550;18.828;2023-06-22T05:07:08;11.00;;;3.75;;
72406;SDS011;60396;47.550;18.828;2023-06-22T05:09:36;15.82;;;3.58;;
72406;SDS011;60396;47.550;18.828;2023-06-22T05:12:04;13.33;;;3.20;;
72406;SDS011;60396;47.550;18.828;2023-06-22T05:14:34;13.50;;;3.55;;
72406;SDS011;60396;47.550;18.828;2023-06-22T05:17:05;13.38;;;3.50;;
72406;SDS011;60396;47.550;18.828;2023-06-22T05:19:42;11.15;;;3.97;;
72406;SDS011;60396;47.550;18.828;2023-06-22T05:22:12;15.27;;;3.78;;
72406;SDS011;60396;47.550;18.828;2023-06-22T05:24:40;14.50;;;4.03;;
72406;SDS011;60396;47.550;18.828;2023-06-22T05:27:08;13.10;;;3.90;;
72406;SDS011;60396;47.550;18.828;2023-06-22T05:29:37;13.82;;;4.12;;
72406;SDS011;60396;47.550;18.828;2023-06-22T05:32:04;15.85;;;3.87;;
72406;SDS011;60396;47.550;18.828;2023-06-22T05:34:32;15.90;;;4.55;;
72406;SDS011;60396;47.550;18.828;2023-06-22T05:37:00;14.97;;;4.70;;
72406;SDS011;60396;47.550;18.828;2023-06-22T05:39:29;14.68;;;3.90;;
72406;SDS011;60396;47.550;18.828;2023-06-22T05:41:56;15.48;;;3.60;;
72406;SDS011;60396;47.550;18.828;2023-06-22T05:44:24;13.55;;;3.72;;
72406;SDS011;60396;47.550;18.828;2023-06-22T05:46:51;11.30;;;3.47;;
72406;SDS011;60396;47.550;18.828;2023-06-22T05:49:19;13.97;;;4.00;;
72406;SDS011;60396;47.550;18.828;2023-06-22T05:51:49;13.07;;;3.58;;
72406;SDS011;60396;47.550;18.828;2023-06-22T05:54:17;19.00;;;3.95;;
72406;SDS011;60396;47.550;18.828;2023-06-22T05:56:45;13.65;;;3.92;;
72406;SDS011;60396;47.550;18.828;2023-06-22T05:59:13;11.32;;;4.12;;
72406;SDS011;60396;47.550;18.828;2023-06-22T06:01:40;13.00;;;4.40;;
72406;SDS011;60396;47.550;18.828;2023-06-22T06:04:08;10.98;;;3.80;;
72406;SDS011;60396;47.550;18.828;2023-06-22T06:06:36;11.95;;;3.62;;
72406;SDS011;60396;47.550;18.828;2023-06-22T06:09:04;13.05;;;4.32;;
72406;SDS011;60396;47.550;18.828;2023-06-22T06:11:33;16.48;;;4.30;;
72406;SDS011;60396;47.550;18.828;2023-06-22T06:14:00;10.47;;;3.97;;
72406;SDS011;60396;47.550;18.828;2023-06-22T06:16:28;14.38;;;4.03;;
72406;SDS011;60396;47.550;18.828;2023-06-22T06:18:56;18.77;;;3.67;;
72406;SDS011;60396;47.550;18.828;2023-06-22T06:21:23;12.75;;;4.25;;
72406;SDS011;60396;47.550;18.828;2023-06-22T06:23:51;15.55;;;4.35;;
72406;SDS011;60396;47.550;18.828;2023-06-22T06:26:20;16.63;;;3.97;;
72406;SDS011;60396;47.550;18.828;2023-06-22T06:28:56;13.75;;;4.12;;
72406;SDS011;60396;47.550;18.828;2023-06-22T06:31:24;14.63;;;4.35;;
72406;SDS011;60396;47.550;18.828;2023-06-22T06:33:55;10.70;;;4.20;;
72406;SDS011;60396;47.550;18.828;2023-06-22T06:36:23;13.52;;;4.15;;
72406;SDS011;60396;47.550;18.828;2023-06-22T06:38:50;12.00;;;3.70;;
72406;SDS011;60396;47.550;18.828;2023-06-22T06:41:18;15.35;;;4.28;;
72406;SDS011;60396;47.550;18.828;2023-06-22T06:43:46;11.45;;;3.55;;
72406;SDS011;60396;47.550;18.828;2023-06-22T06:46:14;9.38;;;3.20;;
72406;SDS011;60396;47.550;18.828;2023-06-22T06:48:42;13.77;;;2.85;;
72406;SDS011;60396;47.550;18.828;2023-06-22T06:51:10;13.47;;;3.50;;
72406;SDS011;60396;47.550;18.828;2023-06-22T06:53:37;12.65;;;3.42;;
72406;SDS011;60396;47.550;18.828;2023-06-22T06:56:05;12.70;;;3.80;;
72406;SDS011;60396;47.550;18.828;2023-06-22T06:58:33;11.05;;;2.83;;
72406;SDS011;60396;47.550;18.828;2023-06-22T07:01:00;11.75;;;2.50;;
72406;SDS011;60396;47.550;18.828;2023-06-22T07:03:28;10.60;;;2.87;;
72406;SDS011;60396;47.550;18.828;2023-06-22T07:05:56;9.27;;;2.40;;
72406;SDS011;60396;47.550;18.828;2023-06-22T07:08:24;9.25;;;2.50;;
72406;SDS011;60396;47.550;18.828;2023-06-22T07:10:52;9.48;;;2.10;;
72406;SDS011;60396;47.550;18.828;2023-06-22T07:13:19;8.35;;;2.72;;
72406;SDS011;60396;47.550;18.828;2023-06-22T07:15:47;12.53;;;2.70;;
72406;SDS011;60396;47.550;18.828;2023-06-22T07:18:17;11.43;;;2.37;;
72406;SDS011;60396;47.550;18.828;2023-06-22T07:20:45;11.82;;;3.35;;
72406;SDS011;60396;47.550;18.828;2023-06-22T07:23:13;13.62;;;2.87;;
72406;SDS011;60396;47.550;18.828;2023-06-22T07:25:40;11.73;;;2.90;;
72406;SDS011;60396;47.550;18.828;2023-06-22T07:28:08;14.83;;;3.27;;
72406;SDS011;60396;47.550;18.828;2023-06-22T07:30:36;10.60;;;3.40;;
72406;SDS011;60396;47.550;18.828;2023-06-22T07:33:04;11.18;;;3.03;;
72406;SDS011;60396;47.550;18.828;2023-06-22T07:35:35;17.05;;;2.58;;
72406;SDS011;60396;47.550;18.828;2023-06-22T07:38:03;9.73;;;2.60;;
72406;SDS011;60396;47.550;18.828;2023-06-22T07:40:32;12.83;;;2.73;;
72406;SDS011;60396;47.550;18.828;2023-06-22T07:43:01;10.40;;;2.62;;
72406;SDS011;60396;47.550;18.828;2023-06-22T07:45:29;7.07;;;2.17;;
72406;SDS011;60396;47.550;18.828;2023-06-22T07:47:57;10.68;;;2.70;;
72406;SDS011;60396;47.550;18.828;2023-06-22T07:50:25;11.02;;;2.67;;
72406;SDS011;60396;47.550;18.828;2023-06-22T07:52:53;12.10;;;2.50;;
72406;SDS011;60396;47.550;18.828;2023-06-22T07:55:20;9.50;;;2.40;;
72406;SDS011;60396;47.550;18.828;2023-06-22T07:57:48;10.40;;;2.60;;
72406;SDS011;60396;47.550;18.828;2023-06-22T08:00:17;15.90;;;3.35;;
72406;SDS011;60396;47.550;18.828;2023-06-22T08:02:45;12.82;;;2.47;;
72406;SDS011;60396;47.550;18.828;2023-06-22T08:05:14;8.63;;;2.50;;
72406;SDS011;60396;47.550;18.828;2023-06-22T08:07:45;9.35;;;3.20;;
72406;SDS011;60396;47.550;18.828;2023-06-22T08:10:15;9.93;;;3.90;;
72406;SDS011;60396;47.550;18.828;2023-06-22T08:12:43;8.00;;;2.90;;
72406;SDS011;60396;47.550;18.828;2023-06-22T08:15:10;8.27;;;3.08;;
72406;SDS011;60396;47.550;18.828;2023-06-22T08:17:38;9.87;;;3.27;;
72406;SDS011;60396;47.550;18.828;2023-06-22T08:20:07;11.20;;;3.97;;
72406;SDS011;60396;47.550;18.828;2023-06-22T08:22:41;12.88;;;3.95;;
72406;SDS011;60396;47.550;18.828;2023-06-22T08:25:10;10.60;;;3.75;;
72406;SDS011;60396;47.550;18.828;2023-06-22T08:27:37;9.45;;;4.12;;
72406;SDS011;60396;47.550;18.828;2023-06-22T08:30:06;14.83;;;3.60;;
72406;SDS011;60396;47.550;18.828;2023-06-22T08:32:35;11.30;;;4.30;;
72406;SDS011;60396;47.550;18.828;2023-06-22T08:35:02;11.30;;;4.55;;
72406;SDS011;60396;47.550;18.828;2023-06-22T08:37:30;11.05;;;4.20;;
72406;SDS011;60396;47.550;18.828;2023-06-22T08:39:59;10.27;;;4.18;;
72406;SDS011;60396;47.550;18.828;2023-06-22T08:42:28;11.77;;;4.40;;
72406;SDS011;60396;47.550;18.828;2023-06-22T08:44:56;11.82;;;4.78;;
72406;SDS011;60396;47.550;18.828;2023-06-22T08:47:24;13.73;;;5.50;;
72406;SDS011;60396;47.550;18.828;2023-06-22T08:49:51;13.77;;;5.05;;
72406;SDS011;60396;47.550;18.828;2023-06-22T08:52:19;12.13;;;5.32;;
72406;SDS011;60396;47.550;18.828;2023-06-22T08:54:47;15.60;;;5.27;;
72406;SDS011;60396;47.550;18.828;2023-06-22T08:57:15;12.35;;;6.60;;
72406;SDS011;60396;47.550;18.828;2023-06-22T08:59:43;15.80;;;5.05;;
72406;SDS011;60396;47.550;18.828;2023-06-22T09:02:11;14.40;;;5.85;;
72406;SDS011;60396;47.550;18.828;2023-06-22T09:04:38;12.60;;;5.55;;
72406;SDS011;60396;47.550;18.828;2023-06-22T09:07:07;16.43;;;5.60;;
72406;SDS011;60396;47.550;18.828;2023-06-22T09:09:34;10.52;;;5.20;;
72406;SDS011;60396;47.550;18.828;2023-06-22T09:12:02;11.93;;;5.20;;
72406;SDS011;60396;47.550;18.828;2023-06-22T09:14:30;11.00;;;5.22;;
72406;SDS011;60396;47.550;18.828;2023-06-22T09:16:58;14.87;;;5.95;;
72406;SDS011;60396;47.550;18.828;2023-06-22T09:19:25;18.27;;;6.20;;
72406;SDS011;60396;47.550;18.828;2023-06-22T09:21:53;14.98;;;6.43;;
72406;SDS011;60396;47.550;18.828;2023-06-22T09:24:21;11.30;;;5.30;;
72406;SDS011;60396;47.550;18.828;2023-06-22T09:26:48;13.75;;;5.60;;
72406;SDS011;60396;47.550;18.828;2023-06-22T09:29:16;13.00;;;5.78;;
72406;SDS011;60396;47.550;18.828;2023-06-22T09:31:44;13.47;;;6.03;;
72406;SDS011;60396;47.550;18.828;2023-06-22T09:34:11;13.00;;;6.30;;
72406;SDS011;60396;47.550;18.828;2023-06-22T09:36:40;16.45;;;5.85;;
72406;SDS011;60396;47.550;18.828;2023-06-22T09:39:08;14.65;;;6.07;;
72406;SDS011;60396;47.550;18.828;2023-06-22T09:41:36;15.93;;;6.03;;
72406;SDS011;60396;47.550;18.828;2023-06-22T09:44:03;14.93;;;6.40;;
72406;SDS011;60396;47.550;18.828;2023-06-22T09:46:31;13.70;;;5.87;;
72406;SDS011;60396;47.550;18.828;2023-06-22T09:48:59;13.75;;;6.03;;
72406;SDS011;60396;47.550;18.828;2023-06-22T09:51:27;11.15;;;6.00;;
72406;SDS011;60396;47.550;18.828;2023-06-22T09:53:54;12.77;;;6.07;;
72406;SDS011;60396;47.550;18.828;2023-06-22T09:56:22;15.70;;;5.90;;
72406;SDS011;60396;47.550;18.828;2023-06-22T09:58:50;11.18;;;5.93;;
72406;SDS011;60396;47.550;18.828;2023-06-22T10:01:20;10.15;;;5.40;;
72406;SDS011;60396;47.550;18.828;2023-06-22T10:03:49;18.45;;;6.95;;
72406;SDS011;60396;47.550;18.828;2023-06-22T10:06:17;14.75;;;6.60;;
72406;SDS011;60396;47.550;18.828;2023-06-22T10:08:44;15.30;;;6.77;;
72406;SDS011;60396;47.550;18.828;2023-06-22T10:11:12;12.98;;;5.97;;
72406;SDS011;60396;47.550;18.828;2023-06-22T10:13:40;13.73;;;6.47;;
72406;SDS011;60396;47.550;18.828;2023-06-22T10:16:07;12.68;;;5.95;;
72406;SDS011;60396;47.550;18.828;2023-06-22T10:18:35;12.07;;;6.05;;
72406;SDS011;60396;47.550;18.828;2023-06-22T10:21:03;13.77;;;6.10;;
72406;SDS011;60396;47.550;18.828;2023-06-22T10:23:30;16.60;;;6.15;;
72406;SDS011;60396;47.550;18.828;2023-06-22T10:25:58;14.50;;;6.37;;
72406;SDS011;60396;47.550;18.828;2023-06-22T10:28:26;15.98;;;6.28;;
72406;SDS011;60396;47.550;18.828;2023-06-22T10:30:53;14.85;;;7.07;;
72406;SDS011;60396;47.550;18.828;2023-06-22T10:33:21;13.83;;;6.80;;
72406;SDS011;60396;47.550;18.828;2023-06-22T10:35:49;15.55;;;6.78;;
72406;SDS011;60396;47.550;18.828;2023-06-22T10:38:16;11.05;;;6.12;;
72406;SDS011;60396;47.550;18.828;2023-06-22T10:40:44;19.08;;;7.20;;
72406;SDS011;60396;47.550;18.828;2023-06-22T10:43:11;16.00;;;7.00;;
72406;SDS011;60396;47.550;18.828;2023-06-22T10:45:39;13.73;;;6.53;;
72406;SDS011;60396;47.550;18.828;2023-06-22T10:48:07;12.52;;;6.28;;
72406;SDS011;60396;47.550;18.828;2023-06-22T10:50:35;14.70;;;7.25;;
72406;SDS011;60396;47.550;18.828;2023-06-22T10:53:02;13.82;;;7.30;;
72406;SDS011;60396;47.550;18.828;2023-06-22T10:55:30;21.58;;;6.93;;
72406;SDS011;60396;47.550;18.828;2023-06-22T10:58:18;14.47;;;6.70;;
72406;SDS011;60396;47.550;18.828;2023-06-22T11:00:46;13.57;;;6.95;;
72406;SDS011;60396;47.550;18.828;2023-06-22T11:03:14;14.48;;;6.60;;
72406;SDS011;60396;47.550;18.828;2023-06-22T11:05:41;14.52;;;6.82;;
72406;SDS011;60396;47.550;18.828;2023-06-22T11:08:09;11.48;;;6.62;;
72406;SDS011;60396;47.550;18.828;2023-06-22T11:10:37;13.63;;;6.43;;
72406;SDS011;60396;47.550;18.828;2023-06-22T11:13:05;15.77;;;7.20;;
72406;SDS011;60396;47.550;18.828;2023-06-22T11:15:37;14.20;;;6.97;;
72406;SDS011;60396;47.550;18.828;2023-06-22T11:18:04;15.98;;;7.12;;
72406;SDS011;60396;47.550;18.828;2023-06-22T11:20:34;16.73;;;6.57;;
72406;SDS011;60396;47.550;18.828;2023-06-22T11:23:06;13.13;;;6.27;;
72406;SDS011;60396;47.550;18.828;2023-06-22T11:25:34;13.80;;;6.10;;
72406;SDS011;60396;47.550;18.828;2023-06-22T11:28:02;16.60;;;6.85;;
72406;SDS011;60396;47.550;18.828;2023-06-22T11:30:30;13.07;;;6.00;;
72406;SDS011;60396;47.550;18.828;2023-06-22T11:32:58;14.07;;;6.43;;
72406;SDS011;60396;47.550;18.828;2023-06-22T11:35:26;14.27;;;6.50;;
72406;SDS011;60396;47.550;18.828;2023-06-22T11:37:54;14.43;;;6.25;;
72406;SDS011;60396;47.550;18.828;2023-06-22T11:40:23;14.10;;;5.95;;
72406;SDS011;60396;47.550;18.828;2023-06-22T11:42:51;14.27;;;6.32;;
72406;SDS011;60396;47.550;18.828;2023-06-22T11:45:19;16.50;;;6.93;;
72406;SDS011;60396;47.550;18.828;2023-06-22T11:47:47;13.83;;;6.93;;
72406;SDS011;60396;47.550;18.828;2023-06-22T11:50:15;14.35;;;7.00;;
72406;SDS011;60396;47.550;18.828;2023-06-22T11:52:43;15.02;;;6.62;;
72406;SDS011;60396;47.550;18.828;2023-06-22T11:55:10;12.65;;;6.50;;
72406;SDS011;60396;47.550;18.828;2023-06-22T11:57:38;15.32;;;7.95;;
72406;SDS011;60396;47.550;18.828;2023-06-22T12:00:07;12.90;;;7.40;;
72406;SDS011;60396;47.550;18.828;2023-06-22T12:02:44;14.95;;;7.43;;
72406;SDS011;60396;47.550;18.828;2023-06-22T12:05:15;10.57;;;6.12;;
72406;SDS011;60396;47.550;18.828;2023-06-22T12:07:42;15.65;;;7.28;;
72406;SDS011;60396;47.550;18.828;2023-06-22T12:10:10;13.48;;;7.70;;
72406;SDS011;60396;47.550;18.828;2023-06-22T12:12:38;16.40;;;7.40;;
72406;SDS011;60396;47.550;18.828;2023-06-22T12:15:06;17.08;;;7.97;;
72406;SDS011;60396;47.550;18.828;2023-06-22T12:17:34;11.90;;;6.22;;
72406;SDS011;60396;47.550;18.828;2023-06-22T12:20:02;12.73;;;7.80;;
72406;SDS011;60396;47.550;18.828;2023-06-22T12:22:32;15.07;;;6.47;;
72406;SDS011;60396;47.550;18.828;2023-06-22T12:25:00;16.20;;;7.23;;
72406;SDS011;60396;47.550;18.828;2023-06-22T12:27:28;12.52;;;6.32;;
72406;SDS011;60396;47.550;18.828;2023-06-22T12:29:57;13.82;;;7.93;;
72406;SDS011;60396;47.550;18.828;2023-06-22T12:32:25;13.60;;;7.62;;
72406;SDS011;60396;47.550;18.828;2023-06-22T12:34:53;13.35;;;7.35;;
72406;SDS011;60396;47.550;18.828;2023-06-22T12:37:21;17.10;;;7.03;;
72406;SDS011;60396;47.550;18.828;2023-06-22T12:39:48;10.80;;;6.50;;
72406;SDS011;60396;47.550;18.828;2023-06-22T12:42:16;13.27;;;6.72;;
72406;SDS011;60396;47.550;18.828;2023-06-22T12:44:44;15.00;;;6.47;;
72406;SDS011;60396;47.550;18.828;2023-06-22T12:47:12;13.88;;;6.15;;
72406;SDS011;60396;47.550;18.828;2023-06-22T12:49:40;15.97;;;6.00;;
72406;SDS011;60396;47.550;18.828;2023-06-22T12:52:10;14.63;;;5.90;;
72406;SDS011;60396;47.550;18.828;2023-06-22T12:54:41;11.35;;;6.00;;
72406;SDS011;60396;47.550;18.828;2023-06-22T12:57:20;13.07;;;6.30;;
72406;SDS011;60396;47.550;18.828;2023-06-22T12:59:48;15.88;;;5.68;;
72406;SDS011;60396;47.550;18.828;2023-06-22T13:02:16;11.37;;;6.13;;
72406;SDS011;60396;47.550;18.828;2023-06-22T13:04:44;16.70;;;7.00;;
72406;SDS011;60396;47.550;18.828;2023-06-22T13:07:12;14.23;;;6.47;;
72406;SDS011;60396;47.550;18.828;2023-06-22T13:09:42;12.43;;;6.10;;
72406;SDS011;60396;47.550;18.828;2023-06-22T13:12:10;16.52;;;7.00;;
72406;SDS011;60396;47.550;18.828;2023-06-22T13:14:38;12.70;;;6.30;;
72406;SDS011;60396;47.550;18.828;2023-06-22T13:17:05;14.18;;;6.25;;
72406;SDS011;60396;47.550;18.828;2023-06-22T13:19:33;15.32;;;7.03;;
72406;SDS011;60396;47.550;18.828;2023-06-22T13:22:01;14.45;;;6.68;;
72406;SDS011;60396;47.550;18.828;2023-06-22T13:24:29;20.77;;;6.70;;
72406;SDS011;60396;47.550;18.828;2023-06-22T13:26:57;15.17;;;6.53;;
72406;SDS011;60396;47.550;18.828;2023-06-22T13:29:25;18.12;;;6.07;;
72406;SDS011;60396;47.550;18.828;2023-06-22T13:31:52;12.52;;;6.28;;
72406;SDS011;60396;47.550;18.828;2023-06-22T13:34:20;13.32;;;6.85;;
72406;SDS011;60396;47.550;18.828;2023-06-22T13:36:47;15.60;;;8.73;;
72406;SDS011;60396;47.550;18.828;2023-06-22T13:39:15;19.70;;;8.67;;
72406;SDS011;60396;47.550;18.828;2023-06-22T13:41:43;14.48;;;8.00;;
72406;SDS011;60396;47.550;18.828;2023-06-22T13:44:11;15.50;;;7.32;;
72406;SDS011;60396;47.550;18.828;2023-06-22T13:46:38;13.45;;;7.50;;
72406;SDS011;60396;47.550;18.828;2023-06-22T13:49:06;14.90;;;8.07;;
72406;SDS011;60396;47.550;18.828;2023-06-22T13:51:34;13.33;;;7.80;;
72406;SDS011;60396;47.550;18.828;2023-06-22T13:54:03;11.82;;;7.70;;
72406;SDS011;60396;47.550;18.828;2023-06-22T13:56:34;16.98;;;7.30;;
72406;SDS011;60396;47.550;18.828;2023-06-22T13:59:02;15.55;;;7.65;;
72406;SDS011;60396;47.550;18.828;2023-06-22T14:01:29;18.35;;;7.62;;
72406;SDS011;60396;47.550;18.828;2023-06-22T14:03:57;18.77;;;7.73;;
72406;SDS011;60396;47.550;18.828;2023-06-22T14:06:25;11.52;;;7.55;;
72406;SDS011;60396;47.550;18.828;2023-06-22T14:08:52;12.77;;;7.45;;
72406;SDS011;60396;47.550;18.828;2023-06-22T14:11:20;13.68;;;7.53;;
72406;SDS011;60396;47.550;18.828;2023-06-22T14:13:47;17.30;;;7.62;;
72406;SDS011;60396;47.550;18.828;2023-06-22T14:16:15;17.27;;;7.50;;
72406;SDS011;60396;47.550;18.828;2023-06-22T14:18:43;15.05;;;7.62;;
72406;SDS011;60396;47.550;18.828;2023-06-22T14:21:11;18.48;;;7.68;;
72406;SDS011;60396;47.550;18.828;2023-06-22T14:23:39;17.37;;;7.53;;
72406;SDS011;60396;47.550;18.828;2023-06-22T14:26:07;16.83;;;7.93;;
72406;SDS011;60396;47.550;18.828;2023-06-22T14:28:34;16.83;;;8.33;;
72406;SDS011;60396;47.550;18.828;2023-06-22T14:31:02;17.23;;;8.07;;
72406;SDS011;60396;47.550;18.828;2023-06-22T14:33:30;19.50;;;8.35;;
72406;SDS011;60396;47.550;18.828;2023-06-22T14:35:57;13.48;;;7.90;;
72406;SDS011;60396;47.550;18.828;2023-06-22T14:38:26;15.70;;;7.18;;
72406;SDS011;60396;47.550;18.828;2023-06-22T14:40:55;14.47;;;8.10;;
72406;SDS011;60396;47.550;18.828;2023-06-22T14:43:43;19.60;;;8.40;;